sensor_id;sensor_type;location;lat;lon;timestamp;pressure;altitude;pressure_sealevel;temperature;humidity
60019;BME280;45870;42.528;26.740;2024-03-25T00:00:58;98198.00;;;16.97;45.71
60019;BME280;45870;42.528;26.740;2024-03-25T00:03:23;98187.72;;;16.72;46.46
60019;BME280;45870;42.528;26.740;2024-03-25T00:05:49;98181.63;;;16.30;47.60
60019;BME280;45870;42.528;26.740;2024-03-25T00:08:15;98184.63;;;16.42;47.42
60019;BME280;45870;42.528;26.740;2024-03-25T00:10:40;98182.91;;;16.91;46.39
60019;BME280;45870;42.528;26.740;2024-03-25T00:13:06;98183.34;;;17.15;45.47
60019;BME280;45870;42.528;26.740;2024-03-25T00:15:31;98190.56;;;16.89;46.11
60019;BME280;45870;42.528;26.740;2024-03-25T00:17:58;98185.25;;;17.15;45.58
60019;BME280;45870;42.528;26.740;2024-03-25T00:20:24;98189.69;;;17.33;45.21
60019;BME280;45870;42.528;26.740;2024-03-25T00:22:49;98184.31;;;18.24;43.14
60019;BME280;45870;42.528;26.740;2024-03-25T00:25:14;98175.69;;;17.57;45.39
60019;BME280;45870;42.528;26.740;2024-03-25T00:27:42;98168.19;;;17.71;44.36
60019;BME280;45870;42.528;26.740;2024-03-25T00:30:08;98161.22;;;18.64;42.28
60019;BME280;45870;42.528;26.740;2024-03-25T00:32:34;98153.66;;;18.35;42.58
60019;BME280;45870;42.528;26.740;2024-03-25T00:35:00;98146.03;;;17.81;44.16
60019;BME280;45870;42.528;26.740;2024-03-25T00:37:25;98150.28;;;17.47;45.07
60019;BME280;45870;42.528;26.740;2024-03-25T00:39:50;98149.06;;;17.71;44.31
60019;BME280;45870;42.528;26.740;2024-03-25T00:42:16;98144.50;;;18.31;42.33
60019;BME280;45870;42.528;26.740;2024-03-25T00:44:42;98156.06;;;18.71;41.00
60019;BME280;45870;42.528;26.740;2024-03-25T00:47:07;98155.41;;;18.66;40.79
60019;BME280;45870;42.528;26.740;2024-03-25T00:49:32;98152.81;;;18.09;42.46
60019;BME280;45870;42.528;26.740;2024-03-25T00:51:59;98146.69;;;17.69;43.22
60019;BME280;45870;42.528;26.740;2024-03-25T00:54:24;98148.75;;;16.63;46.14
60019;BME280;45870;42.528;26.740;2024-03-25T00:56:50;98147.72;;;16.14;47.38
60019;BME280;45870;42.528;26.740;2024-03-25T00:59:16;98140.13;;;16.25;46.81
60019;BME280;45870;42.528;26.740;2024-03-25T01:01:41;98135.78;;;16.46;46.27
60019;BME280;45870;42.528;26.740;2024-03-25T01:04:07;98136.91;;;16.45;46.23
60019;BME280;45870;42.528;26.740;2024-03-25T01:06:32;98133.69;;;15.85;48.80
60019;BME280;45870;42.528;26.740;2024-03-25T01:08:58;98116.72;;;15.88;48.19
60019;BME280;45870;42.528;26.740;2024-03-25T01:11:24;98103.25;;;15.83;48.34
60019;BME280;45870;42.528;26.740;2024-03-25T01:13:49;98108.63;;;16.85;45.49
60019;BME280;45870;42.528;26.740;2024-03-25T01:16:14;98118.28;;;18.65;40.11
60019;BME280;45870;42.528;26.740;2024-03-25T01:18:40;98117.38;;;16.52;44.09
60019;BME280;45870;42.528;26.740;2024-03-25T01:21:05;98117.63;;;17.73;41.62
60019;BME280;45870;42.528;26.740;2024-03-25T01:23:31;98115.03;;;18.80;38.94
60019;BME280;45870;42.528;26.740;2024-03-25T01:25:56;98100.94;;;18.26;39.67
60019;BME280;45870;42.528;26.740;2024-03-25T01:28:22;98107.84;;;18.67;38.84
60019;BME280;45870;42.528;26.740;2024-03-25T01:30:47;98107.69;;;18.63;38.66
60019;BME280;45870;42.528;26.740;2024-03-25T01:33:13;98037.34;;;18.09;39.11
60019;BME280;45870;42.528;26.740;2024-03-25T01:35:39;98104.63;;;18.39;39.25
60019;BME280;45870;42.528;26.740;2024-03-25T01:38:04;98121.81;;;18.05;40.43
60019;BME280;45870;42.528;26.740;2024-03-25T01:40:29;98128.28;;;18.18;39.65
60019;BME280;45870;42.528;26.740;2024-03-25T01:42:55;98125.38;;;18.57;39.02
60019;BME280;45870;42.528;26.740;2024-03-25T01:45:21;98127.28;;;18.74;39.27
60019;BME280;45870;42.528;26.740;2024-03-25T01:47:46;98127.06;;;18.96;39.13
60019;BME280;45870;42.528;26.740;2024-03-25T01:50:12;98123.13;;;19.14;38.53
60019;BME280;45870;42.528;26.740;2024-03-25T01:52:38;98120.78;;;19.33;38.33
60019;BME280;45870;42.528;26.740;2024-03-25T01:55:04;98114.94;;;18.16;41.01
60019;BME280;45870;42.528;26.740;2024-03-25T01:57:30;98105.88;;;16.77;44.77
60019;BME280;45870;42.528;26.740;2024-03-25T01:59:55;98106.31;;;16.26;47.28
60019;BME280;45870;42.528;26.740;2024-03-25T02:02:21;98099.91;;;16.75;46.39
60019;BME280;45870;42.528;26.740;2024-03-25T02:04:48;98101.78;;;16.88;45.72
60019;BME280;45870;42.528;26.740;2024-03-25T02:07:14;98099.78;;;15.69;49.27
60019;BME280;45870;42.528;26.740;2024-03-25T02:09:39;98100.44;;;14.65;52.02
60019;BME280;45870;42.528;26.740;2024-03-25T02:12:05;98102.97;;;14.11;54.40
60019;BME280;45870;42.528;26.740;2024-03-25T02:14:31;98088.34;;;14.44;52.92
60019;BME280;45870;42.528;26.740;2024-03-25T02:16:56;98080.75;;;15.14;51.01
60019;BME280;45870;42.528;26.740;2024-03-25T02:19:22;98072.91;;;15.54;49.58
60019;BME280;45870;42.528;26.740;2024-03-25T02:21:49;98069.75;;;16.40;47.59
60019;BME280;45870;42.528;26.740;2024-03-25T02:24:14;98074.63;;;16.30;46.96
60019;BME280;45870;42.528;26.740;2024-03-25T02:26:40;98065.06;;;16.10;46.85
60019;BME280;45870;42.528;26.740;2024-03-25T02:29:08;98061.97;;;16.03;47.13
60019;BME280;45870;42.528;26.740;2024-03-25T02:31:34;98063.38;;;16.45;45.97
60019;BME280;45870;42.528;26.740;2024-03-25T02:33:59;98063.00;;;16.60;44.98
60019;BME280;45870;42.528;26.740;2024-03-25T02:36:25;98062.22;;;15.43;47.56
60019;BME280;45870;42.528;26.740;2024-03-25T02:38:50;98069.19;;;15.22;47.02
60019;BME280;45870;42.528;26.740;2024-03-25T02:41:16;98069.78;;;15.33;46.82
60019;BME280;45870;42.528;26.740;2024-03-25T02:43:41;98075.81;;;15.93;45.64
60019;BME280;45870;42.528;26.740;2024-03-25T02:46:07;98087.41;;;16.21;44.40
60019;BME280;45870;42.528;26.740;2024-03-25T02:48:33;98074.63;;;15.49;46.25
60019;BME280;45870;42.528;26.740;2024-03-25T02:50:58;98073.78;;;15.98;44.91
60019;BME280;45870;42.528;26.740;2024-03-25T02:53:23;98057.91;;;16.45;43.96
60019;BME280;45870;42.528;26.740;2024-03-25T02:55:49;98063.81;;;15.94;45.01
60019;BME280;45870;42.528;26.740;2024-03-25T02:58:14;98059.59;;;15.38;45.47
60019;BME280;45870;42.528;26.740;2024-03-25T03:00:40;98052.78;;;15.00;46.36
60019;BME280;45870;42.528;26.740;2024-03-25T03:03:05;98054.91;;;15.30;45.52
60019;BME280;45870;42.528;26.740;2024-03-25T03:05:30;98053.16;;;15.48;45.26
60019;BME280;45870;42.528;26.740;2024-03-25T03:07:56;98058.59;;;15.34;45.19
60019;BME280;45870;42.528;26.740;2024-03-25T03:10:21;98068.88;;;15.51;44.76
60019;BME280;45870;42.528;26.740;2024-03-25T03:12:46;98074.31;;;16.09;42.99
60019;BME280;45870;42.528;26.740;2024-03-25T03:15:12;98081.88;;;16.34;42.40
60019;BME280;45870;42.528;26.740;2024-03-25T03:17:37;98083.47;;;16.58;42.13
60019;BME280;45870;42.528;26.740;2024-03-25T03:20:03;98086.47;;;17.18;41.00
60019;BME280;45870;42.528;26.740;2024-03-25T03:22:28;98081.84;;;17.75;39.65
60019;BME280;45870;42.528;26.740;2024-03-25T03:24:54;98073.47;;;16.67;41.88
60019;BME280;45870;42.528;26.740;2024-03-25T03:27:19;98068.19;;;16.70;42.76
60019;BME280;45870;42.528;26.740;2024-03-25T03:29:44;98066.66;;;16.33;43.60
60019;BME280;45870;42.528;26.740;2024-03-25T03:32:10;98074.53;;;16.35;43.88
60019;BME280;45870;42.528;26.740;2024-03-25T03:34:35;98068.28;;;15.90;44.92
60019;BME280;45870;42.528;26.740;2024-03-25T03:37:01;98076.19;;;16.00;45.47
60019;BME280;45870;42.528;26.740;2024-03-25T03:39:26;98075.69;;;15.76;45.74
60019;BME280;45870;42.528;26.740;2024-03-25T03:41:52;98066.25;;;15.32;47.09
60019;BME280;45870;42.528;26.740;2024-03-25T03:44:17;98072.59;;;15.14;47.67
60019;BME280;45870;42.528;26.740;2024-03-25T03:46:42;98051.38;;;14.75;48.88
60019;BME280;45870;42.528;26.740;2024-03-25T03:49:08;98050.56;;;14.75;49.46
60019;BME280;45870;42.528;26.740;2024-03-25T03:51:33;98065.69;;;14.94;49.17
60019;BME280;45870;42.528;26.740;2024-03-25T03:53:59;98070.91;;;14.91;49.64
60019;BME280;45870;42.528;26.740;2024-03-25T03:56:24;98086.44;;;14.58;50.61
60019;BME280;45870;42.528;26.740;2024-03-25T03:58:49;98093.34;;;15.10;49.20
60019;BME280;45870;42.528;26.740;2024-03-25T04:01:15;98098.50;;;14.98;49.94
60019;BME280;45870;42.528;26.740;2024-03-25T04:03:41;98096.44;;;15.31;48.80
60019;BME280;45870;42.528;26.740;2024-03-25T04:06:07;98092.03;;;14.94;49.57
60019;BME280;45870;42.528;26.740;2024-03-25T04:08:33;98089.22;;;15.54;48.61
60019;BME280;45870;42.528;26.740;2024-03-25T04:11:01;98089.69;;;15.42;49.00
60019;BME280;45870;42.528;26.740;2024-03-25T04:13:26;98095.47;;;15.40;48.60
60019;BME280;45870;42.528;26.740;2024-03-25T04:15:51;98067.97;;;16.36;46.18
60019;BME280;45870;42.528;26.740;2024-03-25T04:18:18;98106.50;;;16.07;46.96
60019;BME280;45870;42.528;26.740;2024-03-25T04:20:44;98106.25;;;16.17;45.91
60019;BME280;45870;42.528;26.740;2024-03-25T04:23:09;98106.75;;;14.61;49.74
60019;BME280;45870;42.528;26.740;2024-03-25T04:25:35;98108.94;;;15.59;47.57
60019;BME280;45870;42.528;26.740;2024-03-25T04:28:04;98118.56;;;14.19;50.82
60019;BME280;45870;42.528;26.740;2024-03-25T04:30:31;98126.94;;;13.66;52.11
60019;BME280;45870;42.528;26.740;2024-03-25T04:32:57;98151.41;;;13.80;49.82
60019;BME280;45870;42.528;26.740;2024-03-25T04:35:23;98156.44;;;12.39;52.83
60019;BME280;45870;42.528;26.740;2024-03-25T04:37:48;98160.19;;;12.48;52.65
60019;BME280;45870;42.528;26.740;2024-03-25T04:40:14;98162.66;;;12.44;54.10
60019;BME280;45870;42.528;26.740;2024-03-25T04:42:40;98152.94;;;12.72;53.09
60019;BME280;45870;42.528;26.740;2024-03-25T04:45:05;98158.38;;;12.96;53.25
60019;BME280;45870;42.528;26.740;2024-03-25T04:47:30;98158.09;;;12.97;53.42
60019;BME280;45870;42.528;26.740;2024-03-25T04:49:56;98148.84;;;12.98;53.57
60019;BME280;45870;42.528;26.740;2024-03-25T04:52:21;98150.16;;;12.77;54.00
60019;BME280;45870;42.528;26.740;2024-03-25T04:54:49;98144.06;;;11.94;56.27
60019;BME280;45870;42.528;26.740;2024-03-25T04:57:14;98151.06;;;11.41;57.87
60019;BME280;45870;42.528;26.740;2024-03-25T04:59:40;98151.56;;;11.53;56.27
60019;BME280;45870;42.528;26.740;2024-03-25T05:02:05;98184.75;;;10.44;59.13
60019;BME280;45870;42.528;26.740;2024-03-25T05:04:30;98170.16;;;10.75;57.59
60019;BME280;45870;42.528;26.740;2024-03-25T05:06:56;98179.28;;;11.15;57.10
60019;BME280;45870;42.528;26.740;2024-03-25T05:09:21;98176.91;;;10.93;57.82
60019;BME280;45870;42.528;26.740;2024-03-25T05:11:47;98176.88;;;11.03;57.61
60019;BME280;45870;42.528;26.740;2024-03-25T05:14:12;98161.28;;;10.55;57.79
60019;BME280;45870;42.528;26.740;2024-03-25T05:16:37;98159.66;;;10.79;57.25
60019;BME280;45870;42.528;26.740;2024-03-25T05:19:03;98157.47;;;9.95;59.19
60019;BME280;45870;42.528;26.740;2024-03-25T05:21:30;98170.72;;;10.42;58.83
60019;BME280;45870;42.528;26.740;2024-03-25T05:23:55;98169.88;;;10.82;58.46
60019;BME280;45870;42.528;26.740;2024-03-25T05:26:20;98178.00;;;10.36;59.85
60019;BME280;45870;42.528;26.740;2024-03-25T05:28:46;98170.97;;;10.56;58.33
60019;BME280;45870;42.528;26.740;2024-03-25T05:31:11;98171.78;;;10.56;58.27
60019;BME280;45870;42.528;26.740;2024-03-25T05:33:37;98178.72;;;9.81;60.73
60019;BME280;45870;42.528;26.740;2024-03-25T05:36:03;98177.97;;;10.97;58.81
60019;BME280;45870;42.528;26.740;2024-03-25T05:38:28;98187.19;;;10.50;59.18
60019;BME280;45870;42.528;26.740;2024-03-25T05:40:54;98201.50;;;10.41;59.44
60019;BME280;45870;42.528;26.740;2024-03-25T05:43:20;98208.44;;;11.02;58.57
60019;BME280;45870;42.528;26.740;2024-03-25T05:45:51;98227.13;;;10.79;59.75
60019;BME280;45870;42.528;26.740;2024-03-25T05:48:18;98230.06;;;10.77;59.48
60019;BME280;45870;42.528;26.740;2024-03-25T05:50:43;98228.34;;;11.37;58.76
60019;BME280;45870;42.528;26.740;2024-03-25T05:53:09;98236.41;;;11.57;59.12
60019;BME280;45870;42.528;26.740;2024-03-25T05:55:34;98250.69;;;11.63;58.28
60019;BME280;45870;42.528;26.740;2024-03-25T05:58:00;98250.13;;;12.30;57.03
60019;BME280;45870;42.528;26.740;2024-03-25T06:00:25;98257.59;;;11.05;60.68
60019;BME280;45870;42.528;26.740;2024-03-25T06:02:51;98259.63;;;11.73;58.97
60019;BME280;45870;42.528;26.740;2024-03-25T06:05:18;98263.75;;;11.30;59.94
60019;BME280;45870;42.528;26.740;2024-03-25T06:07:43;98270.34;;;11.93;59.24
60019;BME280;45870;42.528;26.740;2024-03-25T06:10:09;98278.53;;;11.73;58.87
60019;BME280;45870;42.528;26.740;2024-03-25T06:12:34;98267.53;;;11.39;59.55
60019;BME280;45870;42.528;26.740;2024-03-25T06:15:00;98276.69;;;11.43;59.94
60019;BME280;45870;42.528;26.740;2024-03-25T06:17:25;98279.66;;;11.52;59.06
60019;BME280;45870;42.528;26.740;2024-03-25T06:19:51;98283.47;;;12.64;56.15
60019;BME280;45870;42.528;26.740;2024-03-25T06:22:17;98296.97;;;12.69;56.48
60019;BME280;45870;42.528;26.740;2024-03-25T06:24:42;98302.16;;;12.12;57.69
60019;BME280;45870;42.528;26.740;2024-03-25T06:27:09;98311.34;;;12.65;56.67
60019;BME280;45870;42.528;26.740;2024-03-25T06:29:35;98303.59;;;12.48;57.05
60019;BME280;45870;42.528;26.740;2024-03-25T06:32:00;98307.19;;;13.16;54.56
60019;BME280;45870;42.528;26.740;2024-03-25T06:34:44;98323.44;;;12.28;56.11
60019;BME280;45870;42.528;26.740;2024-03-25T06:37:10;98306.41;;;12.77;55.64
60019;BME280;45870;42.528;26.740;2024-03-25T06:39:37;98308.72;;;12.55;55.08
60019;BME280;45870;42.528;26.740;2024-03-25T06:42:03;98311.53;;;13.46;53.25
60019;BME280;45870;42.528;26.740;2024-03-25T06:44:28;98308.31;;;13.44;53.08
60019;BME280;45870;42.528;26.740;2024-03-25T06:46:54;98311.03;;;13.68;52.80
60019;BME280;45870;42.528;26.740;2024-03-25T06:49:21;98310.41;;;13.99;51.14
60019;BME280;45870;42.528;26.740;2024-03-25T06:51:46;98308.34;;;13.39;52.82
60019;BME280;45870;42.528;26.740;2024-03-25T06:54:12;98310.31;;;14.28;51.19
60019;BME280;45870;42.528;26.740;2024-03-25T06:56:37;98314.53;;;14.77;50.60
60019;BME280;45870;42.528;26.740;2024-03-25T06:59:03;98306.69;;;14.14;52.17
60019;BME280;45870;42.528;26.740;2024-03-25T07:01:28;98302.88;;;14.58;51.05
60019;BME280;45870;42.528;26.740;2024-03-25T07:03:54;98310.63;;;14.64;51.84
60019;BME280;45870;42.528;26.740;2024-03-25T07:06:19;98310.06;;;14.48;50.43
60019;BME280;45870;42.528;26.740;2024-03-25T07:08:44;98315.25;;;15.33;50.19
60019;BME280;45870;42.528;26.740;2024-03-25T07:11:10;98308.19;;;15.32;49.07
60019;BME280;45870;42.528;26.740;2024-03-25T07:13:35;98311.41;;;15.53;48.63
60019;BME280;45870;42.528;26.740;2024-03-25T07:16:01;98305.81;;;14.80;50.32
60019;BME280;45870;42.528;26.740;2024-03-25T07:18:26;98300.47;;;14.32;49.78
60019;BME280;45870;42.528;26.740;2024-03-25T07:20:51;98308.25;;;13.73;52.05
60019;BME280;45870;42.528;26.740;2024-03-25T07:23:17;98317.81;;;13.65;51.44
60019;BME280;45870;42.528;26.740;2024-03-25T07:25:42;98306.09;;;13.46;51.55
60019;BME280;45870;42.528;26.740;2024-03-25T07:28:08;98310.13;;;13.48;51.00
60019;BME280;45870;42.528;26.740;2024-03-25T07:30:33;98310.50;;;14.56;50.50
60019;BME280;45870;42.528;26.740;2024-03-25T07:32:58;98307.00;;;13.36;49.98
60019;BME280;45870;42.528;26.740;2024-03-25T07:35:24;98312.13;;;14.14;50.04
60019;BME280;45870;42.528;26.740;2024-03-25T07:37:50;98314.81;;;14.38;50.05
60019;BME280;45870;42.528;26.740;2024-03-25T07:40:17;98313.28;;;14.69;48.23
60019;BME280;45870;42.528;26.740;2024-03-25T07:42:42;98315.09;;;15.11;48.48
60019;BME280;45870;42.528;26.740;2024-03-25T07:45:08;98326.84;;;14.50;47.67
60019;BME280;45870;42.528;26.740;2024-03-25T07:47:33;98321.94;;;14.29;50.18
60019;BME280;45870;42.528;26.740;2024-03-25T07:49:59;98322.75;;;14.90;49.13
60019;BME280;45870;42.528;26.740;2024-03-25T07:52:24;98316.41;;;13.96;46.72
60019;BME280;45870;42.528;26.740;2024-03-25T07:54:50;98327.47;;;14.24;49.84
60019;BME280;45870;42.528;26.740;2024-03-25T07:57:16;98329.19;;;14.57;47.65
60019;BME280;45870;42.528;26.740;2024-03-25T07:59:41;98329.88;;;14.49;48.68
60019;BME280;45870;42.528;26.740;2024-03-25T08:02:07;98331.66;;;15.10;46.57
60019;BME280;45870;42.528;26.740;2024-03-25T08:04:32;98327.88;;;14.92;47.23
60019;BME280;45870;42.528;26.740;2024-03-25T08:06:57;98338.41;;;13.37;50.66
60019;BME280;45870;42.528;26.740;2024-03-25T08:09:23;98328.88;;;13.45;51.04
60019;BME280;45870;42.528;26.740;2024-03-25T08:11:48;98325.69;;;14.14;49.05
60019;BME280;45870;42.528;26.740;2024-03-25T08:14:14;98331.63;;;14.59;48.73
60019;BME280;45870;42.528;26.740;2024-03-25T08:16:39;98328.25;;;14.85;48.12
60019;BME280;45870;42.528;26.740;2024-03-25T08:19:04;98330.03;;;14.95;46.72
60019;BME280;45870;42.528;26.740;2024-03-25T08:21:31;98329.97;;;15.65;46.63
60019;BME280;45870;42.528;26.740;2024-03-25T08:23:56;98325.88;;;15.16;46.52
60019;BME280;45870;42.528;26.740;2024-03-25T08:26:21;98328.47;;;14.52;46.40
60019;BME280;45870;42.528;26.740;2024-03-25T08:28:47;98328.97;;;15.42;47.65
60019;BME280;45870;42.528;26.740;2024-03-25T08:31:14;98327.03;;;16.43;45.05
60019;BME280;45870;42.528;26.740;2024-03-25T08:33:40;98327.66;;;14.88;45.60
60019;BME280;45870;42.528;26.740;2024-03-25T08:36:05;98318.25;;;14.43;47.26
60019;BME280;45870;42.528;26.740;2024-03-25T08:38:31;98317.63;;;14.52;47.61
60019;BME280;45870;42.528;26.740;2024-03-25T08:40:56;98316.56;;;15.04;46.00
60019;BME280;45870;42.528;26.740;2024-03-25T08:43:21;98323.50;;;13.92;46.78
60019;BME280;45870;42.528;26.740;2024-03-25T08:45:47;98341.25;;;14.70;46.88
60019;BME280;45870;42.528;26.740;2024-03-25T08:48:12;98343.28;;;14.96;46.86
60019;BME280;45870;42.528;26.740;2024-03-25T08:50:38;98343.47;;;14.86;47.05
60019;BME280;45870;42.528;26.740;2024-03-25T08:53:03;98344.78;;;14.52;46.77
60019;BME280;45870;42.528;26.740;2024-03-25T08:55:29;98347.97;;;14.35;48.24
60019;BME280;45870;42.528;26.740;2024-03-25T08:57:54;98346.16;;;14.01;47.41
60019;BME280;45870;42.528;26.740;2024-03-25T09:00:20;98342.38;;;13.79;47.87
60019;BME280;45870;42.528;26.740;2024-03-25T09:02:45;98340.22;;;13.76;47.25
60019;BME280;45870;42.528;26.740;2024-03-25T09:05:11;98345.03;;;14.50;45.86
60019;BME280;45870;42.528;26.740;2024-03-25T09:07:38;98352.69;;;13.19;48.37
60019;BME280;45870;42.528;26.740;2024-03-25T09:10:04;98345.00;;;14.55;44.80
60019;BME280;45870;42.528;26.740;2024-03-25T09:12:48;98347.16;;;13.58;45.40
60019;BME280;45870;42.528;26.740;2024-03-25T09:15:13;98338.00;;;14.07;46.38
60019;BME280;45870;42.528;26.740;2024-03-25T09:17:39;98354.34;;;13.73;46.36
60019;BME280;45870;42.528;26.740;2024-03-25T09:20:05;98352.59;;;14.34;43.13
60019;BME280;45870;42.528;26.740;2024-03-25T09:22:45;98369.06;;;15.18;43.04
60019;BME280;45870;42.528;26.740;2024-03-25T09:25:11;98368.66;;;15.24;43.22
60019;BME280;45870;42.528;26.740;2024-03-25T09:27:36;98372.31;;;16.66;42.89
60019;BME280;45870;42.528;26.740;2024-03-25T09:30:02;98380.09;;;16.18;41.93
60019;BME280;45870;42.528;26.740;2024-03-25T09:32:29;98385.84;;;15.57;43.93
60019;BME280;45870;42.528;26.740;2024-03-25T09:34:55;98371.97;;;15.40;41.94
60019;BME280;45870;42.528;26.740;2024-03-25T09:37:21;98384.63;;;16.23;43.26
60019;BME280;45870;42.528;26.740;2024-03-25T09:39:46;98390.38;;;16.08;42.12
60019;BME280;45870;42.528;26.740;2024-03-25T09:42:13;98383.38;;;14.67;42.66
60019;BME280;45870;42.528;26.740;2024-03-25T09:44:39;98385.91;;;15.98;41.98
60019;BME280;45870;42.528;26.740;2024-03-25T09:47:05;98393.53;;;15.69;41.68
60019;BME280;45870;42.528;26.740;2024-03-25T09:49:30;98383.16;;;16.93;41.57
60019;BME280;45870;42.528;26.740;2024-03-25T09:51:57;98397.25;;;15.73;40.46
60019;BME280;45870;42.528;26.740;2024-03-25T09:54:22;98388.66;;;16.53;39.97
60019;BME280;45870;42.528;26.740;2024-03-25T09:56:48;98395.72;;;16.40;39.02
60019;BME280;45870;42.528;26.740;2024-03-25T09:59:14;98404.69;;;16.54;40.76
60019;BME280;45870;42.528;26.740;2024-03-25T10:01:39;98390.41;;;15.24;42.96
60019;BME280;45870;42.528;26.740;2024-03-25T10:04:05;98398.06;;;14.85;44.27
60019;BME280;45870;42.528;26.740;2024-03-25T10:06:30;98419.94;;;14.56;44.12
60019;BME280;45870;42.528;26.740;2024-03-25T10:08:57;98408.72;;;14.63;43.28
60019;BME280;45870;42.528;26.740;2024-03-25T10:11:22;98412.41;;;14.24;45.30
60019;BME280;45870;42.528;26.740;2024-03-25T10:13:48;98433.19;;;15.00;44.03
60019;BME280;45870;42.528;26.740;2024-03-25T10:16:13;98425.47;;;15.07;42.92
60019;BME280;45870;42.528;26.740;2024-03-25T10:18:38;98430.16;;;15.90;42.66
60019;BME280;45870;42.528;26.740;2024-03-25T10:21:06;98441.84;;;15.58;43.24
60019;BME280;45870;42.528;26.740;2024-03-25T10:23:34;98416.38;;;14.98;41.21
60019;BME280;45870;42.528;26.740;2024-03-25T10:26:05;98435.75;;;14.91;42.82
60019;BME280;45870;42.528;26.740;2024-03-25T10:28:31;98432.59;;;14.42;42.78
60019;BME280;45870;42.528;26.740;2024-03-25T10:31:02;98450.53;;;15.92;41.72
60019;BME280;45870;42.528;26.740;2024-03-25T10:33:28;98434.66;;;15.48;41.43
60019;BME280;45870;42.528;26.740;2024-03-25T10:35:54;98442.50;;;15.69;41.62
60019;BME280;45870;42.528;26.740;2024-03-25T10:38:20;98442.03;;;14.21;45.10
60019;BME280;45870;42.528;26.740;2024-03-25T10:40:47;98450.91;;;15.86;42.19
60019;BME280;45870;42.528;26.740;2024-03-25T10:43:17;98449.97;;;16.36;41.06
60019;BME280;45870;42.528;26.740;2024-03-25T10:45:47;98442.72;;;15.72;42.05
60019;BME280;45870;42.528;26.740;2024-03-25T10:48:31;98462.72;;;15.07;45.57
60019;BME280;45870;42.528;26.740;2024-03-25T10:50:58;98452.16;;;14.63;45.79
60019;BME280;45870;42.528;26.740;2024-03-25T10:53:25;98452.28;;;14.53;43.39
60019;BME280;45870;42.528;26.740;2024-03-25T10:55:55;98453.31;;;14.04;46.97
60019;BME280;45870;42.528;26.740;2024-03-25T10:58:21;98458.06;;;14.17;44.68
60019;BME280;45870;42.528;26.740;2024-03-25T11:00:48;98457.59;;;14.10;47.01
60019;BME280;45870;42.528;26.740;2024-03-25T11:03:13;98455.38;;;13.55;46.33
60019;BME280;45870;42.528;26.740;2024-03-25T11:05:39;98435.88;;;13.52;46.43
60019;BME280;45870;42.528;26.740;2024-03-25T11:08:11;98459.59;;;13.71;47.83
60019;BME280;45870;42.528;26.740;2024-03-25T11:10:40;98458.06;;;14.46;45.55
60019;BME280;45870;42.528;26.740;2024-03-25T11:13:27;98447.88;;;14.57;42.89
60019;BME280;45870;42.528;26.740;2024-03-25T11:15:52;98265.03;;;13.00;44.04
60019;BME280;45870;42.528;26.740;2024-03-25T11:18:17;98457.41;;;14.54;44.53
60019;BME280;45870;42.528;26.740;2024-03-25T11:20:43;98466.06;;;15.73;43.93
60019;BME280;45870;42.528;26.740;2024-03-25T11:23:09;98480.00;;;14.92;43.73
60019;BME280;45870;42.528;26.740;2024-03-25T11:25:36;98456.47;;;15.06;42.83
60019;BME280;45870;42.528;26.740;2024-03-25T11:28:01;98468.50;;;14.58;43.16
60019;BME280;45870;42.528;26.740;2024-03-25T11:30:27;98474.88;;;14.48;45.51
60019;BME280;45870;42.528;26.740;2024-03-25T11:32:53;98471.97;;;14.63;42.80
60019;BME280;45870;42.528;26.740;2024-03-25T11:35:19;98486.28;;;14.16;44.36
60019;BME280;45870;42.528;26.740;2024-03-25T11:37:44;98487.25;;;14.30;44.39
60019;BME280;45870;42.528;26.740;2024-03-25T11:40:10;98473.75;;;13.96;43.32
60019;BME280;45870;42.528;26.740;2024-03-25T11:42:38;98507.72;;;13.89;44.32
60019;BME280;45870;42.528;26.740;2024-03-25T11:45:04;98506.34;;;14.20;44.48
60019;BME280;45870;42.528;26.740;2024-03-25T11:47:30;98513.50;;;15.67;40.98
60019;BME280;45870;42.528;26.740;2024-03-25T11:49:55;98514.88;;;15.27;42.22
60019;BME280;45870;42.528;26.740;2024-03-25T11:52:21;98527.78;;;13.88;42.94
60019;BME280;45870;42.528;26.740;2024-03-25T11:54:53;98524.44;;;15.43;40.58
60019;BME280;45870;42.528;26.740;2024-03-25T11:57:18;98530.78;;;14.49;41.01
60019;BME280;45870;42.528;26.740;2024-03-25T11:59:44;98519.78;;;13.29;42.13
60019;BME280;45870;42.528;26.740;2024-03-25T12:02:09;98522.31;;;13.59;42.77
60019;BME280;45870;42.528;26.740;2024-03-25T12:04:35;98535.50;;;14.38;42.43
60019;BME280;45870;42.528;26.740;2024-03-25T12:07:00;98542.97;;;14.52;40.97
60019;BME280;45870;42.528;26.740;2024-03-25T12:09:26;98540.88;;;14.67;40.62
60019;BME280;45870;42.528;26.740;2024-03-25T12:12:10;98527.63;;;14.66;42.16
60019;BME280;45870;42.528;26.740;2024-03-25T12:14:35;98551.22;;;14.41;42.14
60019;BME280;45870;42.528;26.740;2024-03-25T12:17:01;98550.59;;;14.97;39.37
60019;BME280;45870;42.528;26.740;2024-03-25T12:19:27;98561.97;;;16.48;37.52
60019;BME280;45870;42.528;26.740;2024-03-25T12:22:00;98568.56;;;15.78;39.80
60019;BME280;45870;42.528;26.740;2024-03-25T12:24:26;98564.81;;;14.89;42.39
60019;BME280;45870;42.528;26.740;2024-03-25T12:26:51;98570.53;;;16.10;39.96
60019;BME280;45870;42.528;26.740;2024-03-25T12:29:17;98569.03;;;14.19;43.08
60019;BME280;45870;42.528;26.740;2024-03-25T12:31:42;98582.78;;;14.85;41.74
60019;BME280;45870;42.528;26.740;2024-03-25T12:34:12;98580.50;;;15.39;39.57
60019;BME280;45870;42.528;26.740;2024-03-25T12:36:38;98583.16;;;14.49;41.43
60019;BME280;45870;42.528;26.740;2024-03-25T12:39:03;98590.31;;;14.40;40.52
60019;BME280;45870;42.528;26.740;2024-03-25T12:41:29;98600.47;;;15.54;38.84
60019;BME280;45870;42.528;26.740;2024-03-25T12:43:55;98600.09;;;15.97;38.13